Terminal Aerodrome Forecast
Issued by NWS

Home | Current Version | Previous Version | Text Only | Print | Product List | Glossary On
Versions: 1 2 3 4 5 6 7 8 9 10 11 12 13 14 15 16 17 18 19
000
FTUS43 KAPX 281350 AAA
TAFPLN
TAF AMD
KPLN 281350Z 2814/2912 24008KT P6SM BKN090
     FM281800 24010KT P6SM SCT090 SCT280
     FM290100 24004KT P6SM OVC080
     FM290700 24004KT P6SM VCSH OVC070=

USA.gov is the U.S. government's official web portal to all federal, state and local government web resources and services.